createdAt,value
2023-04-09T00:47:14.406Z,6.07
2023-04-09T00:50:00.580Z,5.72
2023-04-09T00:52:45.943Z,5.88
2023-04-09T00:55:31.447Z,5.60
2023-04-09T00:58:17.069Z,5.88
2023-04-09T01:48:40.545Z,5.67
2023-04-09T01:51:27.347Z,5.90
2023-04-09T01:54:12.766Z,5.78
2023-04-09T01:56:57.838Z,6.10
2023-04-09T01:59:43.004Z,7.28
2023-04-09T02:46:34.514Z,5.95
2023-04-09T02:49:19.887Z,6.80
2023-04-09T02:52:05.235Z,5.70
2023-04-09T02:54:50.614Z,5.72
2023-04-09T02:57:36.348Z,5.72
2023-04-09T03:46:13.084Z,6.07
2023-04-09T03:48:59.136Z,6.37
2023-04-09T03:51:52.553Z,5.97
2023-04-09T03:54:38.381Z,5.65
2023-04-09T03:57:29.766Z,6.22
2023-04-09T04:47:38.554Z,6.32
2023-04-09T04:50:23.871Z,6.00
2023-04-09T04:53:15.835Z,5.72
2023-04-09T04:56:06.472Z,6.03
2023-04-09T04:58:51.573Z,5.55
2023-04-09T05:01:38.974Z,6.18
2023-04-09T05:04:28.164Z,5.40
2023-04-09T05:07:15.518Z,5.57
2023-04-09T05:10:08.543Z,5.70
2023-04-09T05:12:59.363Z,6.20
2023-04-09T05:15:51.639Z,5.50
2023-04-09T05:18:37.238Z,5.93
2023-04-09T05:21:22.126Z,5.65
2023-04-09T05:24:09.563Z,6.07
2023-04-09T05:26:54.506Z,6.82
2023-04-09T05:29:39.884Z,5.70
2023-04-09T05:32:26.906Z,5.73
2023-04-09T05:35:12.899Z,5.80
2023-04-09T05:38:01.058Z,5.78
2023-04-09T05:40:48.897Z,5.95
2023-04-09T05:43:34.341Z,5.50
2023-04-09T05:46:19.921Z,5.60
2023-04-09T05:49:07.676Z,5.63
2023-04-09T05:51:54.693Z,5.82
2023-04-09T05:54:44.623Z,5.75
2023-04-09T05:57:32.938Z,5.18
2023-04-09T06:00:21.787Z,5.43
2023-04-09T06:03:08.998Z,6.00
2023-04-09T06:05:53.940Z,5.53
2023-04-09T06:08:39.021Z,5.60
2023-04-09T06:11:24.251Z,5.68
2023-04-09T06:14:09.202Z,5.53
2023-04-09T06:16:54.122Z,5.65
2023-04-09T06:19:39.857Z,6.03
2023-04-09T06:22:24.667Z,6.60
2023-04-09T06:25:09.624Z,5.70
2023-04-09T06:27:54.822Z,5.63
2023-04-09T06:30:39.537Z,6.47
2023-04-09T06:33:24.858Z,5.53
2023-04-09T06:36:10.812Z,6.20
2023-04-09T06:38:56.257Z,5.70
2023-04-09T06:41:41.339Z,6.03
2023-04-09T06:44:41.383Z,6.10
2023-04-09T06:47:26.420Z,5.57
2023-04-09T06:52:57.222Z,6.15
2023-04-09T06:55:42.159Z,6.10
2023-04-09T06:58:27.454Z,5.85
2023-04-09T07:01:12.796Z,5.72
2023-04-09T07:03:57.923Z,5.90
2023-04-09T07:06:43.604Z,6.55
2023-04-09T07:09:28.546Z,5.30
2023-04-09T07:12:13.782Z,5.72
2023-04-09T07:14:59.359Z,6.05
2023-04-09T07:17:44.464Z,5.40
2023-04-09T07:20:29.827Z,5.97
2023-04-09T07:23:14.705Z,5.37
2023-04-09T07:26:01.816Z,6.00
2023-04-09T07:28:46.894Z,5.60
2023-04-09T07:31:35.286Z,6.18
2023-04-09T07:34:21.613Z,6.03
2023-04-09T07:37:07.121Z,5.63
2023-04-09T07:39:52.288Z,5.93
2023-04-09T07:42:38.969Z,5.55
2023-04-09T07:45:24.309Z,5.75
2023-04-09T07:48:09.702Z,5.43
2023-04-09T07:50:54.469Z,6.30
2023-04-09T07:53:39.317Z,5.80
2023-04-09T07:56:24.238Z,5.57
2023-04-09T07:59:09.591Z,5.68
2023-04-09T08:01:55.027Z,5.53
2023-04-09T08:04:40.473Z,5.40
2023-04-09T08:07:25.795Z,5.57
2023-04-09T08:10:15.105Z,5.63
2023-04-09T08:13:00.346Z,5.78
2023-04-09T08:15:45.338Z,6.00
2023-04-09T08:18:31.218Z,5.80
2023-04-09T08:21:16.657Z,6.03
2023-04-09T08:24:04.490Z,5.50
2023-04-09T08:26:49.861Z,4.95
2023-04-09T08:29:34.976Z,5.40
2023-04-09T08:32:20.164Z,5.80
2023-04-09T08:35:06.299Z,6.00
2023-04-09T08:37:51.062Z,5.90
2023-04-09T08:40:36.162Z,5.20
2023-04-09T08:46:10.340Z,5.87
2023-04-09T08:48:55.738Z,5.20
2023-04-09T08:51:46.188Z,5.50
2023-04-09T08:54:32.077Z,5.18
2023-04-09T08:57:17.632Z,5.63
2023-04-09T09:00:03.516Z,5.83
2023-04-09T09:03:08.294Z,5.90
2023-04-09T09:05:53.476Z,5.80
2023-04-09T09:08:38.335Z,5.10
2023-04-09T09:11:27.107Z,5.47
2023-04-09T09:14:12.718Z,5.33
2023-04-09T09:16:58.264Z,5.63
2023-04-09T09:19:43.452Z,5.15
2023-04-09T09:22:28.344Z,5.47
2023-04-09T09:25:13.796Z,5.45
2023-04-09T09:28:07.232Z,5.20
2023-04-09T09:30:52.558Z,6.00
2023-04-09T09:33:37.792Z,5.60
2023-04-09T09:36:35.538Z,5.35
2023-04-09T09:39:22.087Z,5.82
2023-04-09T09:42:07.880Z,4.97
2023-04-09T09:44:53.631Z,5.63
2023-04-09T09:47:38.660Z,5.63
2023-04-09T09:50:28.495Z,5.68
2023-04-09T09:53:14.141Z,5.78
2023-04-09T09:56:00.059Z,5.60
2023-04-09T09:58:49.992Z,5.60
2023-04-09T10:01:36.603Z,5.60
2023-04-09T10:04:23.553Z,6.18
2023-04-09T10:07:09.071Z,5.78
2023-04-09T10:09:56.358Z,5.77
2023-04-09T10:12:41.889Z,5.75
2023-04-09T10:15:31.007Z,6.13
2023-04-09T10:18:16.433Z,5.63
2023-04-09T10:21:05.713Z,5.90
2023-04-09T10:23:51.745Z,5.97
2023-04-09T10:26:40.209Z,5.78
2023-04-09T10:29:29.163Z,5.78
2023-04-09T10:32:21.067Z,6.15
2023-04-09T10:35:06.924Z,6.25
2023-04-09T10:37:52.197Z,6.10
2023-04-09T10:40:43.521Z,6.20
2023-04-09T10:43:29.961Z,5.97
2023-04-09T10:46:27.464Z,6.03
2023-04-09T10:49:13.668Z,6.30
2023-04-09T10:52:09.507Z,5.80
2023-04-09T10:54:55.940Z,6.00
2023-04-09T10:57:42.862Z,5.53
2023-04-09T11:00:27.907Z,6.00
2023-04-09T11:03:12.907Z,5.35
2023-04-09T11:05:58.406Z,5.80
2023-04-09T11:08:44.365Z,6.38
2023-04-09T11:11:29.375Z,5.68
2023-04-09T11:14:19.388Z,5.35
2023-04-09T11:17:04.572Z,5.63
2023-04-09T11:19:49.616Z,5.60
2023-04-09T11:22:34.449Z,6.03
2023-04-09T11:25:23.162Z,5.57
2023-04-09T11:28:08.691Z,5.85
2023-04-09T11:30:53.517Z,5.85
2023-04-09T11:33:38.911Z,6.40
2023-04-09T11:36:24.015Z,5.72
2023-04-09T11:39:08.936Z,6.32
2023-04-09T11:41:53.761Z,5.63
2023-04-09T11:44:38.531Z,5.90
2023-04-09T11:47:24.125Z,5.93
2023-04-09T11:50:09.612Z,5.78
2023-04-09T11:52:54.737Z,5.60
2023-04-09T11:55:39.577Z,5.93
2023-04-09T11:58:26.255Z,5.20
2023-04-09T12:01:11.313Z,5.83
2023-04-09T12:03:56.389Z,6.03
2023-04-09T12:06:42.587Z,5.63
2023-04-09T12:09:28.125Z,5.78
2023-04-09T12:12:17.936Z,5.80
2023-04-09T12:15:07.769Z,5.53
2023-04-09T12:17:55.946Z,6.07
2023-04-09T12:20:43.512Z,5.50
2023-04-09T12:23:28.420Z,5.50
2023-04-09T12:26:14.619Z,5.40
2023-04-09T12:28:59.726Z,5.00
2023-04-09T12:31:45.362Z,5.95
2023-04-09T12:34:31.036Z,5.45
2023-04-09T12:37:15.995Z,5.45
2023-04-09T12:40:01.318Z,5.57
2023-04-09T12:42:46.661Z,5.17
2023-04-09T12:45:32.079Z,5.00
2023-04-09T12:48:17.449Z,5.55
2023-04-09T12:51:02.652Z,5.90
2023-04-09T12:53:47.945Z,6.03
2023-04-09T12:56:32.743Z,5.10
2023-04-09T12:59:17.699Z,5.93
2023-04-09T13:02:03.295Z,5.40
2023-04-09T13:04:48.764Z,5.00
2023-04-09T13:07:33.801Z,5.13
2023-04-09T13:10:18.639Z,5.57
2023-04-09T13:13:03.565Z,5.40
2023-04-09T13:15:48.419Z,5.32
2023-04-09T13:18:33.263Z,5.50
2023-04-09T13:21:18.846Z,5.70
2023-04-09T13:24:04.352Z,5.63
2023-04-09T13:26:49.437Z,5.50
2023-04-09T13:29:34.174Z,5.28
2023-04-09T13:32:20.986Z,5.70
2023-04-09T13:35:06.215Z,4.97
2023-04-09T13:37:51.240Z,5.80
2023-04-09T13:40:36.114Z,5.63
2023-04-09T13:43:21.178Z,5.43
2023-04-09T13:46:06.605Z,4.75
2023-04-09T13:48:51.952Z,5.55
2023-04-09T13:51:37.256Z,5.60
2023-04-09T13:54:22.175Z,5.20
2023-04-09T13:57:07.186Z,5.30
2023-04-09T13:59:52.540Z,5.68
2023-04-09T14:02:37.500Z,5.28
2023-04-09T14:05:22.805Z,5.40
2023-04-09T14:08:07.628Z,4.85
2023-04-09T14:10:52.603Z,5.40
2023-04-09T14:13:37.454Z,5.38
2023-04-09T14:16:23.725Z,4.80
2023-04-09T14:19:10.064Z,5.27
2023-04-09T14:21:55.626Z,4.95
2023-04-09T14:24:40.831Z,5.05
2023-04-09T14:27:26.369Z,5.25
2023-04-09T14:30:12.318Z,5.55
2023-04-09T14:32:57.414Z,5.17
2023-04-09T14:35:42.883Z,5.38
2023-04-09T14:38:28.370Z,5.35
2023-04-09T14:41:13.617Z,5.20
2023-04-09T14:43:58.423Z,5.10
2023-04-09T14:46:43.603Z,5.07
2023-04-09T14:49:29.079Z,5.75
2023-04-09T14:52:14.693Z,4.85
2023-04-09T14:55:00.043Z,5.50
2023-04-09T14:57:44.996Z,5.57
2023-04-09T15:00:30.144Z,4.90
2023-04-09T15:03:15.354Z,4.97
2023-04-09T15:06:00.632Z,5.65
2023-04-09T15:08:46.126Z,4.80
2023-04-09T15:11:31.564Z,4.85
2023-04-09T15:14:16.934Z,5.30
2023-04-09T15:17:01.875Z,4.88
2023-04-09T15:19:46.778Z,4.85
2023-04-09T15:22:31.644Z,5.30
2023-04-09T15:25:17.248Z,4.93
2023-04-09T15:28:03.167Z,4.70
2023-04-09T15:30:48.374Z,5.15
2023-04-09T15:33:33.441Z,5.93
2023-04-09T15:36:18.656Z,5.03
2023-04-09T15:39:06.562Z,4.95
2023-04-09T15:41:51.352Z,5.10
2023-04-09T15:44:36.327Z,5.10
2023-04-09T15:47:21.286Z,5.20
2023-04-09T15:50:06.981Z,5.03
2023-04-09T15:52:52.396Z,4.80
2023-04-09T15:55:37.264Z,4.57
2023-04-09T15:58:22.666Z,5.70
2023-04-09T16:01:08.090Z,5.25
2023-04-09T16:03:53.758Z,5.00
2023-04-09T16:06:39.353Z,4.50
2023-04-09T16:09:24.127Z,4.70
2023-04-09T16:12:08.943Z,5.25
2023-04-09T16:14:54.745Z,4.55
2023-04-09T16:17:41.233Z,4.78
2023-04-09T16:20:26.787Z,4.80
2023-04-09T16:23:11.876Z,5.23
2023-04-09T16:25:56.753Z,4.95
2023-04-09T16:28:41.811Z,5.22
2023-04-09T16:31:26.813Z,4.80
2023-04-09T16:34:11.620Z,4.40
2023-04-09T16:36:56.724Z,4.40
2023-04-09T16:39:42.318Z,5.20
2023-04-09T16:42:27.453Z,4.65
2023-04-09T16:45:12.741Z,4.90
2023-04-09T16:47:57.665Z,5.15
2023-04-09T16:50:43.063Z,4.70
2023-04-09T16:53:27.930Z,5.18
2023-04-09T16:56:14.196Z,4.25
2023-04-09T16:58:59.703Z,4.60
2023-04-09T17:01:44.779Z,4.93
2023-04-09T17:04:31.639Z,4.27
2023-04-09T17:07:16.891Z,4.38
2023-04-09T17:12:47.324Z,4.85
2023-04-09T17:15:32.161Z,4.68
2023-04-09T17:18:18.189Z,4.67
2023-04-09T17:21:03.637Z,5.18
2023-04-09T17:23:49.017Z,4.18
2023-04-09T17:26:34.692Z,5.38
2023-04-09T17:29:21.200Z,5.18
2023-04-09T17:32:06.562Z,4.73
2023-04-09T17:34:52.384Z,5.20
2023-04-09T17:37:38.606Z,4.82
2023-04-09T17:40:23.821Z,5.30
2023-04-09T17:43:08.709Z,4.82
2023-04-09T17:45:56.995Z,5.47
2023-04-09T17:48:42.805Z,4.70
2023-04-09T17:51:28.735Z,4.95
2023-04-09T17:54:16.621Z,4.85
2023-04-09T17:57:02.366Z,4.85
2023-04-09T17:59:47.459Z,5.30
2023-04-09T18:02:32.767Z,5.05
2023-04-09T18:05:18.428Z,5.00
2023-04-09T18:08:04.114Z,5.05
2023-04-09T18:11:05.039Z,4.78
2023-04-09T18:14:01.205Z,5.00
2023-04-09T18:16:47.250Z,4.45
2023-04-09T18:19:32.676Z,4.78
2023-04-09T18:22:18.213Z,4.45
2023-04-09T18:25:04.554Z,5.13
2023-04-09T18:27:49.650Z,5.13
2023-04-09T18:30:38.548Z,4.95
2023-04-09T18:33:25.660Z,5.00
2023-04-09T18:36:10.985Z,4.93
2023-04-09T18:38:56.307Z,5.10
2023-04-09T18:41:42.344Z,4.80
2023-04-09T18:44:27.557Z,4.97
2023-04-09T18:47:12.767Z,5.25
2023-04-09T18:49:58.588Z,4.78
2023-04-09T18:52:43.540Z,4.97
2023-04-09T18:55:28.452Z,5.00
2023-04-09T18:58:18.724Z,4.80
2023-04-09T19:01:12.835Z,4.88
2023-04-09T19:03:57.749Z,4.38
2023-04-09T19:06:47.332Z,4.93
2023-04-09T19:09:32.784Z,5.23
2023-04-09T19:12:18.892Z,5.38
2023-04-09T19:15:04.761Z,4.95
2023-04-09T19:17:50.738Z,4.57
2023-04-09T19:20:37.754Z,5.22
2023-04-09T19:23:23.275Z,5.10
2023-04-09T19:26:09.678Z,5.05
2023-04-09T19:28:55.209Z,4.80
2023-04-09T19:31:41.397Z,4.70
2023-04-09T19:34:26.449Z,5.13
2023-04-09T19:37:11.797Z,5.47
2023-04-09T19:39:57.953Z,5.22
2023-04-09T19:42:45.360Z,5.18
2023-04-09T19:45:30.186Z,5.05
2023-04-09T19:48:15.006Z,5.55
2023-04-09T19:51:00.413Z,5.37
2023-04-09T19:53:47.444Z,5.00
2023-04-09T19:56:32.929Z,5.50
2023-04-09T19:59:18.412Z,4.75
2023-04-09T20:02:03.623Z,5.70
2023-04-09T20:04:48.956Z,5.40
2023-04-09T20:07:34.035Z,5.15
2023-04-09T20:10:20.005Z,4.90
2023-04-09T20:13:07.293Z,5.40
2023-04-09T20:15:52.854Z,5.80
2023-04-09T20:18:38.027Z,5.10
2023-04-09T20:21:23.355Z,5.00
2023-04-09T20:24:08.664Z,4.90
2023-04-09T20:26:54.434Z,5.75
2023-04-09T20:29:39.800Z,4.85
2023-04-09T20:32:25.183Z,5.50
2023-04-09T20:35:11.080Z,5.07
2023-04-09T20:37:56.420Z,4.70
2023-04-09T20:40:41.943Z,5.20
2023-04-09T20:43:27.312Z,5.45
2023-04-09T20:46:13.738Z,5.27
2023-04-09T20:48:59.329Z,5.25
2023-04-09T20:51:44.835Z,5.07
2023-04-09T20:54:30.819Z,5.00
2023-04-09T20:57:16.088Z,5.25
2023-04-09T21:00:01.467Z,5.13
2023-04-09T21:02:46.796Z,5.30
2023-04-09T21:05:32.446Z,5.70
2023-04-09T21:08:17.337Z,5.35
2023-04-09T21:11:02.850Z,5.53
2023-04-09T21:13:54.437Z,5.43
2023-04-09T21:16:40.452Z,5.50
2023-04-09T21:19:25.758Z,5.57
2023-04-09T21:22:11.101Z,5.95
2023-04-09T21:24:56.361Z,5.93
2023-04-09T21:27:42.112Z,5.67
2023-04-09T21:30:28.013Z,5.50
2023-04-09T21:33:13.211Z,5.60
2023-04-09T21:35:58.558Z,5.55
2023-04-09T21:38:44.049Z,5.40
2023-04-09T21:41:28.858Z,5.30
2023-04-09T21:44:14.366Z,6.32
2023-04-09T21:47:01.361Z,5.63
2023-04-09T21:49:46.529Z,5.50
2023-04-09T21:52:32.304Z,6.25
2023-04-09T21:55:17.463Z,5.23
2023-04-09T21:58:03.487Z,5.50
2023-04-09T22:00:48.555Z,5.30
2023-04-09T22:03:34.977Z,5.97
2023-04-09T22:06:20.435Z,5.63
2023-04-09T22:09:05.915Z,5.87
2023-04-09T22:11:51.363Z,6.15
2023-04-09T22:14:36.436Z,6.47
2023-04-09T22:17:21.411Z,6.03
2023-04-09T22:20:07.214Z,5.53
2023-04-09T22:22:53.543Z,6.30
2023-04-09T22:25:38.740Z,6.18
2023-04-09T22:28:24.108Z,6.00
2023-04-09T22:31:09.733Z,6.25
2023-04-09T22:33:54.985Z,6.10
2023-04-09T22:36:41.381Z,6.73
2023-04-09T22:39:26.805Z,6.55
2023-04-09T22:42:12.628Z,5.95
2023-04-09T22:44:57.730Z,6.13
2023-04-09T22:47:42.927Z,6.00
2023-04-09T22:50:30.790Z,6.30
2023-04-09T22:53:19.216Z,6.82
2023-04-09T22:56:04.725Z,7.53
2023-04-09T22:58:49.725Z,6.22
2023-04-09T23:01:34.770Z,6.78
2023-04-09T23:04:24.104Z,6.00
2023-04-09T23:07:09.339Z,6.28
2023-04-09T23:09:57.179Z,7.15
2023-04-09T23:12:42.774Z,6.70
2023-04-09T23:15:28.420Z,6.35
2023-04-09T23:18:13.770Z,5.97
2023-04-09T23:20:58.542Z,6.30
2023-04-09T23:23:43.677Z,6.47
2023-04-09T23:26:28.511Z,7.32
2023-04-09T23:29:13.543Z,7.05
2023-04-09T23:31:58.957Z,6.40
2023-04-09T23:34:44.172Z,6.82
2023-04-09T23:37:29.695Z,6.53
2023-04-09T23:40:17.789Z,6.47
2023-04-09T23:43:03.112Z,6.32
2023-04-09T23:45:50.480Z,7.03
2023-04-09T23:48:35.578Z,5.95
2023-04-09T23:51:20.794Z,7.88
2023-04-09T23:54:05.945Z,6.57
2023-04-09T23:56:50.790Z,7.03
2023-04-09T23:59:36.364Z,7.20
